createdAt,value
2023-02-11T00:00:21.547Z,98816.53
2023-02-11T00:02:48.285Z,98807.13
2023-02-11T00:05:15.218Z,98808.81
2023-02-11T00:07:41.885Z,98809.41
2023-02-11T00:10:09.684Z,98804.34
2023-02-11T00:12:36.815Z,98798.19
2023-02-11T00:15:04.188Z,98804.03
2023-02-11T00:17:31.405Z,98810.81
2023-02-11T00:19:58.071Z,98805.59
2023-02-11T00:22:24.717Z,98799.22
2023-02-11T00:24:51.337Z,98806.94
2023-02-11T00:27:18.047Z,98808.41
2023-02-11T00:29:44.659Z,98814.91
2023-02-11T00:32:11.280Z,98804.44
2023-02-11T00:34:37.920Z,98793.56
2023-02-11T00:37:04.796Z,98796.31
2023-02-11T00:39:31.475Z,98796.72
2023-02-11T00:41:58.334Z,98797.72
2023-02-11T00:44:25.155Z,98800.72
2023-02-11T00:46:51.781Z,98800.22
2023-02-11T00:49:18.390Z,98784.75
2023-02-11T00:51:47.552Z,98777.88
2023-02-11T00:54:14.261Z,98781.88
2023-02-11T00:56:40.913Z,98775.47
2023-02-11T00:59:07.584Z,98775.84
2023-02-11T01:01:34.309Z,98769.47
2023-02-11T01:04:02.334Z,98761.03
2023-02-11T01:06:29.006Z,98769.13
2023-02-11T01:08:55.711Z,98766.72
2023-02-11T01:11:23.239Z,98764.31
2023-02-11T01:13:50.047Z,98762.13
2023-02-11T01:16:17.313Z,98762.72
2023-02-11T01:18:46.965Z,98754.91
2023-02-11T01:21:14.453Z,98757.19
2023-02-11T01:23:41.136Z,98755.25
2023-02-11T01:26:07.837Z,98758.94
2023-02-11T01:28:34.602Z,98757.63
2023-02-11T01:31:01.844Z,98761.94
2023-02-11T01:33:28.653Z,98757.09
2023-02-11T01:35:55.257Z,98762.56
2023-02-11T01:38:24.203Z,98772.22
2023-02-11T01:40:55.081Z,98778.44
2023-02-11T01:43:22.017Z,98769.75
2023-02-11T01:45:48.920Z,98772.53
2023-02-11T01:48:46.888Z,98776.06
2023-02-11T01:51:17.075Z,98765.16
2023-02-11T01:53:44.317Z,98764.78
2023-02-11T01:56:10.934Z,98763.22
2023-02-11T01:58:39.117Z,98761.47
2023-02-11T02:01:05.762Z,98756.16
2023-02-11T02:03:32.441Z,98753.59
2023-02-11T02:06:04.001Z,98752.03
2023-02-11T02:08:41.214Z,98752.22
2023-02-11T02:11:07.974Z,98741.72
2023-02-11T02:13:34.851Z,98736.41
2023-02-11T02:16:03.448Z,98733.75
2023-02-11T02:18:51.593Z,98737.22
2023-02-11T02:21:36.033Z,98739.38
2023-02-11T02:24:20.911Z,98736.88
2023-02-11T02:27:16.417Z,98732.53
2023-02-11T02:29:58.155Z,98741.72
2023-02-11T02:32:43.346Z,98735.50
2023-02-11T02:35:36.113Z,98725.34
2023-02-11T02:38:11.183Z,98729.97
2023-02-11T02:40:45.330Z,98725.50
2023-02-11T02:43:12.035Z,98717.69
2023-02-11T02:45:38.700Z,98720.31
2023-02-11T02:48:05.374Z,98719.00
2023-02-11T02:50:36.488Z,98718.41
2023-02-11T02:53:18.134Z,98710.69
2023-02-11T02:56:04.278Z,98712.72
2023-02-11T02:58:54.416Z,98708.88
2023-02-11T03:01:29.967Z,98701.69
2023-02-11T03:03:59.493Z,98706.97
2023-02-11T03:06:34.457Z,98699.97
2023-02-11T03:09:09.015Z,98716.41
2023-02-11T03:11:36.991Z,98706.59
2023-02-11T03:14:03.988Z,98700.69
2023-02-11T03:16:30.728Z,98702.38
2023-02-11T03:19:01.165Z,98699.13
2023-02-11T03:21:27.769Z,98699.50
2023-02-11T03:23:54.937Z,98690.84
2023-02-11T03:26:23.797Z,98696.00
2023-02-11T03:29:10.363Z,98702.16
2023-02-11T03:31:55.428Z,98694.06
2023-02-11T03:34:44.041Z,98693.88
2023-02-11T03:37:18.043Z,98686.63
2023-02-11T03:39:47.806Z,98684.13
2023-02-11T03:42:14.562Z,98680.63
2023-02-11T03:44:44.309Z,98674.72
2023-02-11T03:47:10.965Z,98681.72
2023-02-11T03:49:38.179Z,98675.81
2023-02-11T03:52:04.921Z,98673.88
2023-02-11T03:54:31.719Z,98680.28
2023-02-11T03:57:00.124Z,98679.06
2023-02-11T03:59:26.774Z,98676.06
2023-02-11T04:01:53.449Z,98678.59
2023-02-11T04:04:20.356Z,98681.38
2023-02-11T04:06:47.059Z,98671.72
2023-02-11T04:09:13.715Z,98674.63
2023-02-11T04:11:40.357Z,98684.66
2023-02-11T04:14:07.010Z,98676.81
2023-02-11T04:16:33.666Z,98669.31
2023-02-11T04:19:00.408Z,98671.97
2023-02-11T04:21:27.070Z,98672.94
2023-02-11T04:23:53.782Z,98681.63
2023-02-11T04:26:20.397Z,98678.16
2023-02-11T04:28:47.066Z,98667.91
2023-02-11T04:31:13.761Z,98670.69
2023-02-11T04:33:40.478Z,98669.59
2023-02-11T04:36:07.494Z,98675.25
2023-02-11T04:38:34.108Z,98679.72
2023-02-11T04:41:00.733Z,98671.63
2023-02-11T04:43:27.430Z,98682.47
2023-02-11T04:45:57.506Z,98682.63
2023-02-11T04:48:24.508Z,98683.09
2023-02-11T04:50:51.204Z,98677.88
2023-02-11T04:53:17.813Z,98680.22
2023-02-11T04:55:44.425Z,98679.22
2023-02-11T04:58:11.086Z,98675.00
2023-02-11T05:00:37.725Z,98672.00
2023-02-11T05:03:04.353Z,98662.63
2023-02-11T05:05:31.019Z,98654.41
2023-02-11T05:07:57.642Z,98664.19
2023-02-11T05:10:24.241Z,98660.06
2023-02-11T05:12:50.868Z,98655.59
2023-02-11T05:15:17.547Z,98662.50
2023-02-11T05:17:44.158Z,98657.81
2023-02-11T05:20:10.885Z,98655.25
2023-02-11T05:22:37.468Z,98658.38
2023-02-11T05:25:04.153Z,98656.56
2023-02-11T05:27:30.745Z,98649.25
2023-02-11T05:29:57.374Z,98648.28
2023-02-11T05:32:23.977Z,98644.78
2023-02-11T05:34:50.680Z,98637.22
2023-02-11T05:37:17.366Z,98638.16
2023-02-11T05:39:43.990Z,98642.25
2023-02-11T05:42:10.657Z,98640.97
2023-02-11T05:44:37.337Z,98639.25
2023-02-11T05:47:03.993Z,98645.66
2023-02-11T05:49:30.613Z,98637.59
2023-02-11T05:51:57.500Z,98640.59
2023-02-11T05:54:24.143Z,98647.81
2023-02-11T05:56:50.781Z,98647.59
2023-02-11T05:59:17.399Z,98643.38
2023-02-11T06:01:44.003Z,98645.91
2023-02-11T06:04:10.664Z,98645.91
2023-02-11T06:06:37.351Z,98649.28
2023-02-11T06:09:04.256Z,98646.38
2023-02-11T06:11:30.890Z,98650.38
2023-02-11T06:13:57.571Z,98649.53
2023-02-11T06:16:24.285Z,98662.31
2023-02-11T06:18:50.918Z,98651.00
2023-02-11T06:21:17.601Z,98659.53
2023-02-11T06:23:44.243Z,98662.31
2023-02-11T06:26:16.458Z,98644.22
2023-02-11T06:28:43.151Z,98640.34
2023-02-11T06:31:10.017Z,98647.81
2023-02-11T06:33:36.703Z,98655.69
2023-02-11T06:36:03.697Z,98650.38
2023-02-11T06:38:30.296Z,98660.97
2023-02-11T06:40:56.947Z,98656.75
2023-02-11T06:43:23.592Z,98659.16
2023-02-11T06:45:56.051Z,98663.25
2023-02-11T06:48:23.049Z,98666.19
2023-02-11T06:50:49.672Z,98671.81
2023-02-11T06:53:16.325Z,98668.94
2023-02-11T06:55:43.171Z,98667.94
2023-02-11T06:58:09.819Z,98675.19
2023-02-11T07:00:36.698Z,98674.34
2023-02-11T07:03:03.445Z,98672.16
2023-02-11T07:05:30.092Z,98678.16
2023-02-11T07:07:57.038Z,98676.97
2023-02-11T07:10:23.763Z,98669.66
2023-02-11T07:12:50.379Z,98671.56
2023-02-11T07:15:17.020Z,98681.56
2023-02-11T07:17:43.610Z,98688.09
2023-02-11T07:20:10.653Z,98704.47
2023-02-11T07:22:37.267Z,98713.38
2023-02-11T07:25:04.030Z,98713.63
2023-02-11T07:27:30.676Z,98715.75
2023-02-11T07:29:57.293Z,98716.47
2023-02-11T07:32:23.956Z,98712.72
2023-02-11T07:34:50.747Z,98719.03
2023-02-11T07:37:17.446Z,98726.50
2023-02-11T07:39:44.102Z,98729.50
2023-02-11T07:42:10.768Z,98725.50
2023-02-11T07:44:37.388Z,98729.13
2023-02-11T07:47:04.101Z,98723.34
2023-02-11T07:49:30.782Z,98716.13
2023-02-11T07:51:57.531Z,98722.72
2023-02-11T07:54:24.209Z,98725.47
2023-02-11T07:56:50.849Z,98726.56
2023-02-11T07:59:17.496Z,98736.69
2023-02-11T08:01:44.179Z,98735.69
2023-02-11T08:04:10.956Z,98731.09
2023-02-11T08:06:41.169Z,98731.72
2023-02-11T08:09:08.037Z,98736.25
2023-02-11T08:11:34.647Z,98738.81
2023-02-11T08:14:01.400Z,98739.78
2023-02-11T08:16:30.239Z,98729.81
2023-02-11T08:18:57.667Z,98723.81
2023-02-11T08:21:24.576Z,98733.53
2023-02-11T08:23:51.255Z,98733.16
2023-02-11T08:26:19.499Z,98735.03
2023-02-11T08:28:46.711Z,98740.88
2023-02-11T08:31:21.058Z,98741.34
2023-02-11T08:33:47.730Z,98748.63
2023-02-11T08:36:16.554Z,98746.78
2023-02-11T08:38:43.161Z,98754.22
2023-02-11T08:41:09.848Z,98756.75
2023-02-11T08:43:36.594Z,98756.03
2023-02-11T08:46:03.392Z,98761.41
2023-02-11T08:48:30.118Z,98759.16
2023-02-11T08:50:56.979Z,98755.78
2023-02-11T08:53:23.604Z,98752.88
2023-02-11T08:55:51.239Z,98764.53
2023-02-11T08:58:19.174Z,98768.84
2023-02-11T09:00:46.465Z,98770.25
2023-02-11T09:03:13.892Z,98766.69
2023-02-11T09:05:47.853Z,98771.63
2023-02-11T09:08:14.492Z,98770.09
2023-02-11T09:10:41.149Z,98767.22
2023-02-11T09:13:07.856Z,98770.41
2023-02-11T09:15:34.541Z,98766.31
2023-02-11T09:18:01.347Z,98781.91
2023-02-11T09:20:28.043Z,98778.91
2023-02-11T09:22:54.899Z,98783.34
2023-02-11T09:25:21.552Z,98782.69
2023-02-11T09:27:48.241Z,98788.47
2023-02-11T09:30:15.342Z,98793.94
2023-02-11T09:32:41.959Z,98788.66
2023-02-11T09:35:08.702Z,98787.31
2023-02-11T09:37:37.354Z,98778.31
2023-02-11T09:40:04.487Z,98773.84
2023-02-11T09:42:43.141Z,98767.56
2023-02-11T09:45:24.206Z,98788.19
2023-02-11T09:47:59.460Z,98789.00
2023-02-11T09:50:28.116Z,98783.13
2023-02-11T09:53:00.556Z,98782.44
2023-02-11T09:55:35.624Z,98790.13
2023-02-11T09:58:03.367Z,98794.47
2023-02-11T10:01:08.354Z,98800.78
2023-02-11T10:03:46.830Z,98806.09
2023-02-11T10:06:31.795Z,98810.28
2023-02-11T10:09:04.209Z,98806.22
2023-02-11T10:11:36.805Z,98814.50
2023-02-11T10:14:15.462Z,98811.28
2023-02-11T10:17:21.636Z,98812.53
2023-02-11T10:20:06.484Z,98806.66
2023-02-11T10:22:36.692Z,98807.78
2023-02-11T10:25:13.008Z,98804.94
2023-02-11T10:27:39.909Z,98801.13
2023-02-11T10:30:07.880Z,98800.16
2023-02-11T10:32:53.071Z,98796.25
2023-02-11T10:35:21.632Z,98797.06
2023-02-11T10:37:48.637Z,98789.31
2023-02-11T10:40:19.569Z,98791.97
2023-02-11T10:42:55.665Z,98791.66
2023-02-11T10:45:30.431Z,98786.00
2023-02-11T10:47:57.076Z,98785.25
2023-02-11T10:50:31.281Z,98784.53
2023-02-11T10:53:19.998Z,98782.31
2023-02-11T10:55:56.394Z,98776.97
2023-02-11T10:59:05.593Z,98770.50
2023-02-11T11:01:52.857Z,98766.41
2023-02-11T11:04:27.276Z,98765.84
2023-02-11T11:06:53.983Z,98763.00
2023-02-11T11:09:28.030Z,98757.22
2023-02-11T11:11:54.689Z,98752.41
2023-02-11T11:14:21.426Z,98759.03
2023-02-11T11:16:54.623Z,98750.22
2023-02-11T11:19:24.866Z,98752.16
2023-02-11T11:21:55.759Z,98748.53
2023-02-11T11:24:29.428Z,98750.22
2023-02-11T11:26:57.662Z,98750.56
2023-02-11T11:29:50.424Z,98753.59
2023-02-11T11:32:28.037Z,98745.22
2023-02-11T11:34:55.797Z,98748.97
2023-02-11T11:37:22.272Z,98735.50
2023-02-11T11:39:57.935Z,98723.97
2023-02-11T11:42:29.959Z,98726.03
2023-02-11T11:45:18.748Z,98724.06
2023-02-11T11:47:48.441Z,98718.09
2023-02-11T11:50:21.900Z,98722.84
2023-02-11T11:53:05.137Z,98713.22
2023-02-11T11:56:02.623Z,98717.88
2023-02-11T11:58:29.430Z,98703.88
2023-02-11T12:01:15.217Z,98699.84
2023-02-11T12:04:09.659Z,98697.56
2023-02-11T12:07:03.444Z,98688.59
2023-02-11T12:09:38.665Z,98692.50
2023-02-11T12:12:25.881Z,98687.56
2023-02-11T12:15:14.178Z,98679.78
2023-02-11T12:17:52.266Z,98675.97
2023-02-11T12:20:56.515Z,98682.00
2023-02-11T12:23:47.610Z,98675.50
2023-02-11T12:26:20.489Z,98671.38
2023-02-11T12:28:53.091Z,98671.41
2023-02-11T12:31:34.882Z,98667.44
2023-02-11T12:34:33.957Z,98667.81
2023-02-11T12:37:10.896Z,98664.22
2023-02-11T12:39:54.353Z,98662.09
2023-02-11T12:42:38.630Z,98659.91
2023-02-11T12:45:12.001Z,98650.72
2023-02-11T12:48:00.896Z,98658.75
2023-02-11T12:50:36.009Z,98646.34
2023-02-11T12:53:28.899Z,98648.53
2023-02-11T12:56:00.942Z,98643.88
2023-02-11T12:58:42.799Z,98642.03
2023-02-11T13:01:16.086Z,98634.06
2023-02-11T13:03:56.311Z,98630.03
2023-02-11T13:06:28.330Z,98627.00
2023-02-11T13:08:59.529Z,98616.66
2023-02-11T13:11:47.297Z,98619.16
2023-02-11T13:14:32.305Z,98616.84
2023-02-11T13:16:59.055Z,98611.50
2023-02-11T13:19:37.633Z,98599.44
2023-02-11T13:22:04.127Z,98605.47
2023-02-11T13:24:42.454Z,98605.13
2023-02-11T13:27:48.236Z,98595.13
2023-02-11T13:30:33.514Z,98594.31
2023-02-11T13:33:00.109Z,98587.44
2023-02-11T13:35:33.728Z,98582.75
2023-02-11T13:38:03.728Z,98584.59
2023-02-11T13:40:38.199Z,98583.34
2023-02-11T13:43:06.044Z,98596.09
2023-02-11T13:45:42.877Z,98599.94
2023-02-11T13:48:22.580Z,98582.72
2023-02-11T13:50:50.815Z,98593.06
2023-02-11T13:53:17.622Z,98590.75
2023-02-11T13:55:48.946Z,98590.22
2023-02-11T13:58:16.028Z,98589.38
2023-02-11T14:00:47.658Z,98587.31
2023-02-11T14:03:14.169Z,98584.50
2023-02-11T14:05:40.771Z,98585.84
2023-02-11T14:08:10.265Z,98580.16
2023-02-11T14:10:42.826Z,98574.28
2023-02-11T14:13:54.284Z,98576.44
2023-02-11T14:16:36.388Z,98575.28
2023-02-11T14:19:04.418Z,98567.69
2023-02-11T14:21:38.349Z,98567.69
2023-02-11T14:24:04.973Z,98574.63
2023-02-11T14:26:52.033Z,98570.75
2023-02-11T14:29:43.897Z,98573.09
2023-02-11T14:32:32.699Z,98569.09
2023-02-11T14:35:09.904Z,98576.31
2023-02-11T14:37:44.379Z,98575.94
2023-02-11T14:40:16.673Z,98579.97
2023-02-11T14:42:43.313Z,98575.78
2023-02-11T14:45:11.366Z,98577.97
2023-02-11T14:48:05.129Z,98571.41
2023-02-11T14:50:54.262Z,98571.56
2023-02-11T14:53:24.543Z,98567.91
2023-02-11T14:55:52.188Z,98562.22
2023-02-11T14:58:28.953Z,98561.59
2023-02-11T15:01:06.422Z,98554.72
2023-02-11T15:03:37.777Z,98552.91
2023-02-11T15:06:18.026Z,98552.06
2023-02-11T15:09:02.885Z,98552.91
2023-02-11T15:11:31.664Z,98551.03
2023-02-11T15:13:59.809Z,98552.19
2023-02-11T15:16:27.217Z,98553.69
2023-02-11T15:18:59.453Z,98550.50
2023-02-11T15:21:27.747Z,98542.66
2023-02-11T15:24:00.590Z,98540.34
2023-02-11T15:26:27.345Z,98545.50
2023-02-11T15:28:53.971Z,98547.50
2023-02-11T15:31:22.526Z,98536.13
2023-02-11T15:33:49.696Z,98544.53
2023-02-11T15:36:16.752Z,98535.16
2023-02-11T15:38:43.468Z,98537.81
2023-02-11T15:41:33.984Z,98536.31
2023-02-11T15:44:00.945Z,98530.97
2023-02-11T15:46:37.729Z,98528.16
2023-02-11T15:49:04.431Z,98523.44
2023-02-11T15:51:32.503Z,98529.13
2023-02-11T15:54:00.645Z,98529.31
2023-02-11T15:56:33.702Z,98528.78
2023-02-11T15:59:07.413Z,98525.09
2023-02-11T16:01:35.175Z,98528.06
2023-02-11T16:04:02.228Z,98531.41
2023-02-11T16:06:41.552Z,98530.34
2023-02-11T16:09:08.010Z,98529.69
2023-02-11T16:11:36.424Z,98532.31
2023-02-11T16:14:19.426Z,98532.25
2023-02-11T16:16:46.698Z,98531.88
2023-02-11T16:19:13.349Z,98532.91
2023-02-11T16:21:41.844Z,98529.19
2023-02-11T16:24:14.878Z,98531.66
2023-02-11T16:26:41.522Z,98530.25
2023-02-11T16:29:11.768Z,98533.25
2023-02-11T16:31:40.273Z,98533.75
2023-02-11T16:34:18.114Z,98539.72
2023-02-11T16:36:45.229Z,98535.84
2023-02-11T16:39:11.926Z,98548.63
2023-02-11T16:41:38.767Z,98544.06
2023-02-11T16:44:05.423Z,98548.03
2023-02-11T16:46:32.135Z,98545.22
2023-02-11T16:48:59.065Z,98547.50
2023-02-11T16:51:25.685Z,98540.97
2023-02-11T16:53:52.342Z,98545.94
2023-02-11T16:56:19.131Z,98539.31
2023-02-11T16:58:45.778Z,98543.50
2023-02-11T17:01:14.073Z,98555.03
2023-02-11T17:03:41.064Z,98554.78
2023-02-11T17:06:10.637Z,98551.81
2023-02-11T17:08:39.823Z,98553.41
2023-02-11T17:11:06.758Z,98549.81
2023-02-11T17:13:33.653Z,98554.91
2023-02-11T17:16:00.327Z,98553.75
2023-02-11T17:18:26.995Z,98558.28
2023-02-11T17:20:53.651Z,98561.78
2023-02-11T17:23:20.305Z,98559.19
2023-02-11T17:25:46.913Z,98561.44
2023-02-11T17:28:13.633Z,98566.63
2023-02-11T17:30:40.776Z,98564.69
2023-02-11T17:33:07.386Z,98570.56
2023-02-11T17:35:33.976Z,98572.69
2023-02-11T17:38:00.621Z,98578.00
2023-02-11T17:40:27.269Z,98574.66
2023-02-11T17:42:53.949Z,98581.44
2023-02-11T17:45:22.386Z,98583.53
2023-02-11T17:47:49.210Z,98586.75
2023-02-11T17:50:15.909Z,98587.44
2023-02-11T17:52:42.574Z,98597.47
2023-02-11T17:55:09.215Z,98594.78
2023-02-11T17:57:35.832Z,98599.13
2023-02-11T18:00:02.866Z,98602.78
2023-02-11T18:02:29.509Z,98600.94
2023-02-11T18:04:56.208Z,98602.81
2023-02-11T18:07:23.182Z,98606.19
2023-02-11T18:09:49.877Z,98611.53
2023-02-11T18:12:16.530Z,98605.59
2023-02-11T18:14:43.175Z,98614.03
2023-02-11T18:17:09.874Z,98609.28
2023-02-11T18:19:36.527Z,98612.91
2023-02-11T18:22:03.251Z,98612.91
2023-02-11T18:24:29.966Z,98614.31
2023-02-11T18:26:56.644Z,98615.16
2023-02-11T18:29:23.298Z,98620.81
2023-02-11T18:31:50.069Z,98619.13
2023-02-11T18:34:16.830Z,98621.78
2023-02-11T18:36:43.488Z,98612.69
2023-02-11T18:39:10.117Z,98609.59
2023-02-11T18:41:36.746Z,98613.78
2023-02-11T18:44:03.733Z,98610.72
2023-02-11T18:46:30.581Z,98615.78
2023-02-11T18:48:57.294Z,98624.31
2023-02-11T18:51:23.997Z,98628.09
2023-02-11T18:53:50.660Z,98627.28
2023-02-11T18:56:19.629Z,98626.69
2023-02-11T18:58:46.744Z,98626.28
2023-02-11T19:01:21.080Z,98625.16
2023-02-11T19:03:47.890Z,98626.84
2023-02-11T19:06:18.907Z,98634.84
2023-02-11T19:08:45.861Z,98630.31
2023-02-11T19:11:12.936Z,98637.34
2023-02-11T19:13:39.762Z,98636.50
2023-02-11T19:16:11.464Z,98636.09
2023-02-11T19:18:38.362Z,98636.50
2023-02-11T19:21:09.389Z,98632.31
2023-02-11T19:23:36.123Z,98629.81
2023-02-11T19:26:02.748Z,98633.16
2023-02-11T19:28:29.448Z,98633.84
2023-02-11T19:30:56.264Z,98637.53
2023-02-11T19:33:22.968Z,98634.88
2023-02-11T19:35:49.802Z,98634.56
2023-02-11T19:38:16.596Z,98634.28
2023-02-11T19:40:43.224Z,98641.59
2023-02-11T19:43:09.940Z,98643.81
2023-02-11T19:45:39.611Z,98650.41
2023-02-11T19:48:06.372Z,98649.00
2023-02-11T19:50:33.074Z,98652.22
2023-02-11T19:52:59.726Z,98647.19
2023-02-11T19:55:26.417Z,98640.91
2023-02-11T19:57:53.047Z,98643.13
2023-02-11T20:00:20.091Z,98645.78
2023-02-11T20:02:46.887Z,98644.94
2023-02-11T20:05:13.590Z,98644.53
2023-02-11T20:07:40.319Z,98642.44
2023-02-11T20:10:07.732Z,98635.00
2023-02-11T20:12:34.370Z,98633.88
2023-02-11T20:15:01.171Z,98639.34
2023-02-11T20:17:27.817Z,98641.44
2023-02-11T20:19:54.509Z,98636.53
2023-02-11T20:22:21.142Z,98632.91
2023-02-11T20:24:47.819Z,98633.19
2023-02-11T20:27:14.457Z,98638.50
2023-02-11T20:29:41.080Z,98634.19
2023-02-11T20:32:08.034Z,98637.22
2023-02-11T20:34:34.945Z,98633.88
2023-02-11T20:37:01.629Z,98625.47
2023-02-11T20:39:28.333Z,98623.38
2023-02-11T20:41:54.976Z,98624.09
2023-02-11T20:44:21.795Z,98633.88
2023-02-11T20:46:48.493Z,98633.44
2023-02-11T20:49:17.125Z,98630.41
2023-02-11T20:51:43.966Z,98624.91
2023-02-11T20:54:17.936Z,98627.72
2023-02-11T20:56:47.741Z,98622.53
2023-02-11T20:59:14.809Z,98637.94
2023-02-11T21:01:42.900Z,98638.38
2023-02-11T21:04:14.413Z,98634.97
2023-02-11T21:06:45.669Z,98637.53
2023-02-11T21:09:13.932Z,98632.63
2023-02-11T21:11:40.822Z,98626.56
2023-02-11T21:14:07.499Z,98622.53
2023-02-11T21:16:34.199Z,98626.59
2023-02-11T21:19:01.264Z,98625.06
2023-02-11T21:21:28.000Z,98629.53
2023-02-11T21:23:54.742Z,98631.06
2023-02-11T21:26:21.589Z,98630.94
2023-02-11T21:28:48.380Z,98628.13
2023-02-11T21:31:19.976Z,98628.41
2023-02-11T21:33:46.755Z,98629.94
2023-02-11T21:36:13.354Z,98624.19
2023-02-11T21:38:40.033Z,98627.13
2023-02-11T21:41:06.760Z,98618.47
2023-02-11T21:43:33.468Z,98618.19
2023-02-11T21:46:00.139Z,98619.44
2023-02-11T21:48:26.799Z,98620.00
2023-02-11T21:50:53.501Z,98613.56
2023-02-11T21:53:20.117Z,98621.13
2023-02-11T21:55:46.790Z,98622.50
2023-02-11T21:58:13.447Z,98629.50
2023-02-11T22:00:40.133Z,98622.38
2023-02-11T22:03:06.824Z,98629.50
2023-02-11T22:05:33.483Z,98635.94
2023-02-11T22:08:00.108Z,98628.41
2023-02-11T22:10:26.731Z,98637.59
2023-02-11T22:12:53.644Z,98635.69
2023-02-11T22:15:20.279Z,98638.75
2023-02-11T22:17:46.947Z,98638.34
2023-02-11T22:20:13.576Z,98635.78
2023-02-11T22:22:40.245Z,98628.94
2023-02-11T22:25:07.291Z,98630.84
2023-02-11T22:27:33.935Z,98634.63
2023-02-11T22:30:00.543Z,98641.22
2023-02-11T22:32:27.198Z,98637.31
2023-02-11T22:34:53.826Z,98633.13
2023-02-11T22:37:20.590Z,98630.59
2023-02-11T22:39:47.373Z,98642.50
2023-02-11T22:42:14.022Z,98639.03
2023-02-11T22:44:40.686Z,98637.31
2023-02-11T22:47:07.379Z,98643.50
2023-02-11T22:49:34.066Z,98639.56
2023-02-11T22:52:00.737Z,98647.41
2023-02-11T22:54:27.387Z,98639.09
2023-02-11T22:56:54.002Z,98636.03
2023-02-11T22:59:20.783Z,98633.41
2023-02-11T23:01:47.694Z,98638.16
2023-02-11T23:04:15.205Z,98638.31
2023-02-11T23:06:41.931Z,98633.28
2023-02-11T23:09:09.414Z,98635.94
2023-02-11T23:11:36.038Z,98638.03
2023-02-11T23:14:02.767Z,98638.88
2023-02-11T23:16:33.148Z,98639.97
2023-02-11T23:19:00.730Z,98643.88
2023-02-11T23:21:29.107Z,98634.91
2023-02-11T23:23:57.579Z,98631.97
2023-02-11T23:26:24.336Z,98629.19
2023-02-11T23:28:50.991Z,98631.09
2023-02-11T23:31:18.841Z,98636.44
2023-02-11T23:33:45.616Z,98634.50
2023-02-11T23:36:13.564Z,98630.28
2023-02-11T23:38:40.229Z,98627.34
2023-02-11T23:41:06.857Z,98624.69
2023-02-11T23:43:33.459Z,98628.34
2023-02-11T23:46:00.168Z,98621.50
2023-02-11T23:48:26.993Z,98624.84
2023-02-11T23:50:53.631Z,98619.94
2023-02-11T23:53:20.272Z,98626.66
2023-02-11T23:55:46.920Z,98614.63
2023-02-11T23:58:13.993Z,98618.56
